createdAt,value
2018-09-14T00:01:21.183Z,16.37
2018-09-14T00:03:48.768Z,17.70
2018-09-14T00:06:16.228Z,16.57
2018-09-14T00:08:43.675Z,16.20
2018-09-14T00:11:11.139Z,16.23
2018-09-14T00:13:38.627Z,15.53
2018-09-14T00:16:10.791Z,15.30
2018-09-14T00:18:38.240Z,16.23
2018-09-14T00:21:05.768Z,16.40
2018-09-14T00:23:33.336Z,15.83
2018-09-14T00:26:00.753Z,15.03
2018-09-14T00:28:28.231Z,16.77
2018-09-14T00:30:56.655Z,14.80
2018-09-14T00:33:24.136Z,14.93
2018-09-14T00:35:51.583Z,16.60
2018-09-14T00:38:20.619Z,14.57
2018-09-14T00:40:48.099Z,13.93
2018-09-14T00:43:15.577Z,15.30
2018-09-14T00:45:42.998Z,13.90
2018-09-14T00:48:10.660Z,14.87
2018-09-14T00:50:38.087Z,14.00
2018-09-14T00:53:05.667Z,15.83
2018-09-14T00:55:33.104Z,13.67
2018-09-14T00:58:00.660Z,13.57
2018-09-14T01:00:28.112Z,13.87
2018-09-14T01:02:55.735Z,13.87
2018-09-14T01:05:23.182Z,13.20
2018-09-14T01:07:50.614Z,14.47
2018-09-14T01:10:18.063Z,13.03
2018-09-14T01:12:45.470Z,12.83
2018-09-14T01:15:12.902Z,12.47
2018-09-14T01:17:40.329Z,13.00
2018-09-14T01:20:09.114Z,12.87
2018-09-14T01:22:36.508Z,12.33
2018-09-14T01:25:04.017Z,13.13
2018-09-14T01:27:31.444Z,14.47
2018-09-14T01:29:58.893Z,12.90
2018-09-14T01:32:26.456Z,13.13
2018-09-14T01:34:54.036Z,13.70
2018-09-14T01:37:21.483Z,13.70
2018-09-14T01:39:50.604Z,12.60
2018-09-14T01:42:18.087Z,12.60
2018-09-14T01:44:45.602Z,13.00
2018-09-14T01:47:18.732Z,14.40
2018-09-14T01:49:46.156Z,13.00
2018-09-14T01:52:13.597Z,13.40
2018-09-14T01:54:41.065Z,15.57
2018-09-14T01:57:08.547Z,13.60
2018-09-14T01:59:35.988Z,12.63
2018-09-14T02:02:03.477Z,12.83
2018-09-14T02:04:30.967Z,13.03
2018-09-14T02:06:58.419Z,12.97
2018-09-14T02:09:25.860Z,11.47
2018-09-14T02:14:54.004Z,11.90
2018-09-14T02:17:21.429Z,13.50
2018-09-14T02:19:48.851Z,12.87
2018-09-14T02:22:16.287Z,13.20
2018-09-14T02:24:43.763Z,13.57
2018-09-14T02:27:11.200Z,13.27
2018-09-14T02:29:38.805Z,13.07
2018-09-14T02:32:06.169Z,13.93
2018-09-14T02:34:33.541Z,13.40
2018-09-14T02:37:01.107Z,14.50
2018-09-14T02:39:28.475Z,15.00
2018-09-14T02:41:55.845Z,14.67
2018-09-14T02:44:23.256Z,14.73
2018-09-14T02:46:51.249Z,13.60
2018-09-14T02:49:18.652Z,14.33
2018-09-14T02:51:46.061Z,14.10
2018-09-14T02:54:13.872Z,14.80
2018-09-14T02:56:41.280Z,14.80
2018-09-14T02:59:08.840Z,14.83
2018-09-14T03:01:36.304Z,14.63
2018-09-14T03:04:03.740Z,13.90
2018-09-14T03:06:31.910Z,15.23
2018-09-14T03:09:00.340Z,15.27
2018-09-14T03:11:27.551Z,15.97
2018-09-14T03:13:54.729Z,14.70
2018-09-14T03:16:21.934Z,14.73
2018-09-14T03:18:49.337Z,15.80
2018-09-14T03:21:16.719Z,14.33
2018-09-14T03:23:44.371Z,16.07
2018-09-14T03:26:12.148Z,14.70
2018-09-14T03:28:39.567Z,14.80
2018-09-14T03:31:07.010Z,15.20
2018-09-14T03:33:34.471Z,15.80
2018-09-14T03:36:01.904Z,16.80
2018-09-14T03:38:29.324Z,15.50
2018-09-14T03:40:56.796Z,15.77
2018-09-14T03:43:24.240Z,15.90
2018-09-14T03:45:51.869Z,15.37
2018-09-14T03:48:19.385Z,16.10
2018-09-14T03:50:47.037Z,15.67
2018-09-14T03:53:14.460Z,15.50
2018-09-14T03:55:41.916Z,14.97
2018-09-14T03:58:09.345Z,15.80
2018-09-14T04:00:36.787Z,17.00
2018-09-14T04:03:06.572Z,16.77
2018-09-14T04:05:34.047Z,14.70
2018-09-14T04:08:01.494Z,16.23
2018-09-14T04:10:28.935Z,17.87
2018-09-14T04:12:56.363Z,14.97
2018-09-14T04:15:24.927Z,14.77
2018-09-14T04:17:52.374Z,15.57
2018-09-14T04:20:22.942Z,16.37
2018-09-14T04:22:50.185Z,15.30
2018-09-14T04:25:17.799Z,14.37
2018-09-14T04:27:45.030Z,14.63
2018-09-14T04:30:12.268Z,15.20
2018-09-14T04:32:39.524Z,15.30
2018-09-14T04:35:06.762Z,14.40
2018-09-14T04:37:34.061Z,16.23
2018-09-14T04:40:01.810Z,15.30
2018-09-14T04:42:29.039Z,14.30
2018-09-14T04:44:56.269Z,13.93
2018-09-14T04:47:23.575Z,13.87
2018-09-14T04:49:50.808Z,15.43
2018-09-14T04:52:18.153Z,13.67
2018-09-14T04:54:45.391Z,14.90
2018-09-14T04:57:12.899Z,14.40
2018-09-14T04:59:40.627Z,17.43
2018-09-14T05:02:07.869Z,16.53
2018-09-14T05:04:35.302Z,15.30
2018-09-14T05:07:03.645Z,14.73
2018-09-14T05:09:30.844Z,12.97
2018-09-14T05:11:58.097Z,14.30
2018-09-14T05:14:25.333Z,14.50
2018-09-14T05:16:52.560Z,13.77
2018-09-14T05:19:22.174Z,15.10
2018-09-14T05:21:49.401Z,15.90
2018-09-14T05:24:16.750Z,13.93
2018-09-14T05:26:44.781Z,17.00
2018-09-14T05:29:12.218Z,15.40
2018-09-14T05:31:39.557Z,15.67
2018-09-14T05:34:06.976Z,15.63
2018-09-14T05:36:34.195Z,14.73
2018-09-14T05:39:01.473Z,14.93
2018-09-14T05:41:28.711Z,14.33
2018-09-14T05:43:55.943Z,16.60
2018-09-14T05:46:23.218Z,17.13
2018-09-14T05:48:50.499Z,15.33
2018-09-14T05:51:17.835Z,16.00
2018-09-14T05:53:45.051Z,15.50
2018-09-14T05:56:12.859Z,16.50
2018-09-14T05:58:40.316Z,17.10
2018-09-14T06:01:07.748Z,17.30
2018-09-14T06:03:35.159Z,16.60
2018-09-14T06:06:02.607Z,16.50
2018-09-14T06:08:32.091Z,16.30
2018-09-14T06:10:59.617Z,16.73
2018-09-14T06:13:28.047Z,18.27
2018-09-14T06:15:56.527Z,15.20
2018-09-14T06:18:29.211Z,16.57
2018-09-14T06:20:56.686Z,16.33
2018-09-14T06:23:24.079Z,19.10
2018-09-14T06:25:51.541Z,19.60
2018-09-14T06:28:19.003Z,16.73
2018-09-14T06:30:46.479Z,15.10
2018-09-14T06:33:13.977Z,13.90
2018-09-14T06:35:41.380Z,14.03
2018-09-14T06:38:08.851Z,15.47
2018-09-14T06:40:36.228Z,13.90
2018-09-14T06:43:03.681Z,15.27
2018-09-14T06:45:31.253Z,13.93
2018-09-14T06:47:58.556Z,14.90
2018-09-14T06:50:28.141Z,14.13
2018-09-14T06:52:55.575Z,15.63
2018-09-14T06:55:23.003Z,15.53
2018-09-14T06:57:50.449Z,16.80
2018-09-14T07:00:17.984Z,16.23
2018-09-14T07:02:45.342Z,17.67
2018-09-14T07:05:12.785Z,15.33
2018-09-14T07:07:40.188Z,15.83
2018-09-14T07:10:07.599Z,14.63
2018-09-14T07:12:35.138Z,13.30
2018-09-14T07:15:02.611Z,13.57
2018-09-14T07:17:30.024Z,15.57
2018-09-14T07:19:57.451Z,13.40
2018-09-14T07:22:25.047Z,14.23
2018-09-14T07:24:52.598Z,14.30
2018-09-14T07:27:19.872Z,17.33
2018-09-14T07:29:47.249Z,13.93
2018-09-14T07:32:14.608Z,14.10
2018-09-14T07:34:41.984Z,14.70
2018-09-14T07:37:09.346Z,15.90
2018-09-14T07:39:36.736Z,13.67
2018-09-14T07:42:04.183Z,13.73
2018-09-14T07:44:31.542Z,16.70
2018-09-14T07:46:58.922Z,14.70
2018-09-14T07:49:26.311Z,14.17
2018-09-14T07:51:53.702Z,13.83
2018-09-14T07:54:21.104Z,14.70
2018-09-14T07:56:48.451Z,14.10
2018-09-14T07:59:15.814Z,15.30
2018-09-14T08:01:43.217Z,14.87
2018-09-14T08:04:10.650Z,13.93
2018-09-14T08:06:38.121Z,14.17
2018-09-14T08:09:07.733Z,14.13
2018-09-14T08:11:35.247Z,14.47
2018-09-14T08:14:02.614Z,13.10
2018-09-14T08:16:29.995Z,12.00
2018-09-14T08:18:57.388Z,12.83
2018-09-14T08:21:24.803Z,13.20
2018-09-14T08:23:52.139Z,13.63
2018-09-14T08:26:19.512Z,13.50
2018-09-14T08:28:46.911Z,13.90
2018-09-14T08:31:14.264Z,15.63
2018-09-14T08:33:41.724Z,13.87
2018-09-14T08:36:09.108Z,14.17
2018-09-14T08:38:36.515Z,15.00
2018-09-14T08:41:03.920Z,14.73
2018-09-14T08:43:31.312Z,15.37
2018-09-14T08:45:58.687Z,15.63
2018-09-14T08:48:26.064Z,15.57
2018-09-14T08:50:53.455Z,14.40
2018-09-14T08:53:20.817Z,14.77
2018-09-14T08:55:48.272Z,15.47
2018-09-14T08:58:15.685Z,14.30
2018-09-14T09:00:43.131Z,13.93
2018-09-14T09:03:10.504Z,12.90
2018-09-14T09:05:37.856Z,14.13
2018-09-14T09:08:05.353Z,14.03
2018-09-14T09:10:32.721Z,13.13
2018-09-14T09:13:00.119Z,12.13
2018-09-14T09:15:27.517Z,13.23
2018-09-14T09:17:54.908Z,11.23
2018-09-14T09:20:22.304Z,11.80
2018-09-14T09:22:49.701Z,11.50
2018-09-14T09:25:17.103Z,10.87
2018-09-14T09:27:44.480Z,10.20
2018-09-14T09:30:12.000Z,10.73
2018-09-14T09:32:39.491Z,11.50
2018-09-14T09:35:06.897Z,10.67
2018-09-14T09:37:34.803Z,11.83
2018-09-14T09:40:02.216Z,9.90
2018-09-14T09:42:29.593Z,6.70
2018-09-14T09:44:57.000Z,9.37
2018-09-14T09:47:24.371Z,8.50
2018-09-14T09:49:51.736Z,8.60
2018-09-14T09:52:19.136Z,8.40
2018-09-14T09:54:46.541Z,9.60
2018-09-14T09:57:13.948Z,8.67
2018-09-14T09:59:41.320Z,10.47
2018-09-14T10:02:14.352Z,12.00
2018-09-14T10:04:47.462Z,12.00
2018-09-14T10:07:14.847Z,10.73
2018-09-14T10:09:42.251Z,10.53
2018-09-14T10:12:09.615Z,9.97
2018-09-14T10:14:37.092Z,10.37
2018-09-14T10:17:04.511Z,10.10
2018-09-14T10:19:31.869Z,9.97
2018-09-14T10:21:59.304Z,10.73
2018-09-14T10:24:26.682Z,10.40
2018-09-14T10:26:54.319Z,11.50
2018-09-14T10:29:21.702Z,10.23
2018-09-14T10:31:49.059Z,9.60
2018-09-14T10:34:16.408Z,8.27
2018-09-14T10:36:43.866Z,9.33
2018-09-14T10:39:11.883Z,9.50
2018-09-14T10:41:39.372Z,9.70
2018-09-14T10:44:06.752Z,9.80
2018-09-14T10:46:34.133Z,9.33
2018-09-14T10:49:01.500Z,10.30
2018-09-14T10:51:28.849Z,9.33
2018-09-14T10:53:56.220Z,8.10
2018-09-14T10:56:23.588Z,6.90
2018-09-14T10:58:50.960Z,5.03
2018-09-14T11:01:18.388Z,5.17
2018-09-14T11:03:45.696Z,5.83
2018-09-14T11:06:13.832Z,7.37
2018-09-14T11:08:41.197Z,8.30
2018-09-14T11:11:08.555Z,11.50
2018-09-14T11:13:35.932Z,11.70
2018-09-14T11:16:03.296Z,9.97
2018-09-14T11:18:30.769Z,10.83
2018-09-14T11:20:58.151Z,10.87
2018-09-14T11:23:25.496Z,11.17
2018-09-14T11:25:52.853Z,11.77
2018-09-14T11:28:20.524Z,10.80
2018-09-14T11:30:47.965Z,11.70
2018-09-14T11:33:15.445Z,11.00
2018-09-14T11:35:42.867Z,10.43
2018-09-14T11:38:10.344Z,10.00
2018-09-14T11:40:37.700Z,10.60
2018-09-14T11:43:05.139Z,11.50
2018-09-14T11:45:32.570Z,10.57
2018-09-14T11:48:00.001Z,11.93
2018-09-14T11:50:27.420Z,10.80
2018-09-14T11:52:54.836Z,11.13
2018-09-14T11:55:22.823Z,10.67
2018-09-14T11:57:50.941Z,9.63
2018-09-14T12:00:18.440Z,9.90
2018-09-14T12:02:45.931Z,9.13
2018-09-14T12:05:13.377Z,9.33
2018-09-14T12:07:40.822Z,8.90
2018-09-14T12:10:09.120Z,9.70
2018-09-14T12:12:36.547Z,9.57
2018-09-14T12:15:04.100Z,9.40
2018-09-14T12:17:31.592Z,8.50
2018-09-14T12:19:59.034Z,8.40
2018-09-14T12:22:26.812Z,8.03
2018-09-14T12:24:54.217Z,8.73
2018-09-14T12:27:22.667Z,8.00
2018-09-14T12:29:50.076Z,8.97
2018-09-14T12:32:17.636Z,8.63
2018-09-14T12:34:45.248Z,8.63
2018-09-14T12:37:12.724Z,8.57
2018-09-14T12:39:40.796Z,8.63
2018-09-14T12:42:08.196Z,10.17
2018-09-14T12:44:35.560Z,8.17
2018-09-14T12:47:02.944Z,9.40
2018-09-14T12:49:30.321Z,8.63
2018-09-14T12:51:57.719Z,9.30
2018-09-14T12:54:25.088Z,7.90
2018-09-14T12:56:52.493Z,9.50
2018-09-14T12:59:19.877Z,9.00
2018-09-14T13:01:47.431Z,9.27
2018-09-14T13:04:14.816Z,10.00
2018-09-14T13:06:42.275Z,9.77
2018-09-14T13:09:11.015Z,8.73
2018-09-14T13:11:38.983Z,8.77
2018-09-14T13:14:06.551Z,8.10
2018-09-14T13:16:33.939Z,8.13
2018-09-14T13:19:01.335Z,9.37
2018-09-14T13:21:28.707Z,9.40
2018-09-14T13:23:56.068Z,11.20
2018-09-14T13:26:23.459Z,11.43
2018-09-14T13:28:50.871Z,10.47
2018-09-14T13:31:18.451Z,11.67
2018-09-14T13:33:51.130Z,10.57
2018-09-14T13:36:19.251Z,10.50
2018-09-14T13:38:46.407Z,8.90
2018-09-14T13:41:13.596Z,9.50
2018-09-14T13:43:40.768Z,11.40
2018-09-14T13:46:07.962Z,9.43
2018-09-14T13:48:36.272Z,8.97
2018-09-14T13:51:03.757Z,9.57
2018-09-14T13:53:30.925Z,12.17
2018-09-14T13:55:58.109Z,10.30
2018-09-14T13:58:25.471Z,10.50
2018-09-14T14:00:52.811Z,9.57
2018-09-14T14:03:20.181Z,9.33
2018-09-14T14:05:47.506Z,9.90
2018-09-14T14:08:14.928Z,9.90
2018-09-14T14:10:42.299Z,8.87
2018-09-14T14:13:10.313Z,8.90
2018-09-14T14:15:37.694Z,8.60
2018-09-14T14:18:05.236Z,9.60
2018-09-14T14:20:32.592Z,9.17
2018-09-14T14:23:00.058Z,9.87
2018-09-14T14:25:27.356Z,10.10
2018-09-14T14:27:54.771Z,9.60
2018-09-14T14:30:22.157Z,9.50
2018-09-14T14:32:49.529Z,9.77
2018-09-14T14:35:16.889Z,9.87
2018-09-14T14:37:44.248Z,9.27
2018-09-14T14:40:11.592Z,8.17
2018-09-14T14:42:39.031Z,10.70
2018-09-14T14:45:06.405Z,10.40
2018-09-14T14:47:33.912Z,9.87
2018-09-14T14:50:01.286Z,9.50
2018-09-14T14:52:28.696Z,10.40
2018-09-14T14:54:56.086Z,8.20
2018-09-14T14:57:23.520Z,7.37
2018-09-14T14:59:50.910Z,8.00
2018-09-14T15:02:18.352Z,7.30
2018-09-14T15:04:45.699Z,8.10
2018-09-14T15:07:13.083Z,8.83
2018-09-14T15:09:40.535Z,9.97
2018-09-14T15:12:07.949Z,9.03
2018-09-14T15:14:35.340Z,9.40
2018-09-14T15:17:02.710Z,7.67
2018-09-14T15:19:30.319Z,8.37
2018-09-14T15:21:57.664Z,8.03
2018-09-14T15:24:25.067Z,8.53
2018-09-14T15:26:52.508Z,8.53
2018-09-14T15:29:19.960Z,9.47
2018-09-14T15:31:47.428Z,7.73
2018-09-14T15:34:14.872Z,7.40
2018-09-14T15:36:42.331Z,7.40
2018-09-14T15:39:11.067Z,7.20
2018-09-14T15:41:38.460Z,7.23
2018-09-14T15:44:05.942Z,7.10
2018-09-14T15:46:33.355Z,7.40
2018-09-14T15:49:00.811Z,7.47
2018-09-14T15:51:28.186Z,7.43
2018-09-14T15:53:55.578Z,6.50
2018-09-14T15:56:23.100Z,7.60
2018-09-14T15:58:50.588Z,6.90
2018-09-14T16:01:18.028Z,7.20
2018-09-14T16:03:45.448Z,7.63
2018-09-14T16:06:12.915Z,7.23
2018-09-14T16:08:40.372Z,7.03
2018-09-14T16:11:07.821Z,5.90
2018-09-14T16:13:35.340Z,6.90
2018-09-14T16:16:02.744Z,6.30
2018-09-14T16:18:30.176Z,5.97
2018-09-14T16:20:57.612Z,5.67
2018-09-14T16:23:25.053Z,6.30
2018-09-14T16:25:52.476Z,5.77
2018-09-14T16:28:19.873Z,5.60
2018-09-14T16:30:47.264Z,4.50
2018-09-14T16:33:14.636Z,4.37
2018-09-14T16:35:42.001Z,3.53
2018-09-14T16:38:09.377Z,3.67
2018-09-14T16:40:36.840Z,3.93
2018-09-14T16:43:04.196Z,4.20
2018-09-14T16:45:31.566Z,5.00
2018-09-14T16:47:58.970Z,4.97
2018-09-14T16:50:26.465Z,5.07
2018-09-14T16:52:53.804Z,4.40
2018-09-14T16:55:21.171Z,4.87
2018-09-14T16:57:50.637Z,4.60
2018-09-14T17:00:18.028Z,4.10
2018-09-14T17:02:45.479Z,4.53
2018-09-14T17:05:12.798Z,5.30
2018-09-14T17:07:40.140Z,4.57
2018-09-14T17:10:07.649Z,4.80
2018-09-14T17:12:35.148Z,5.77
2018-09-14T17:15:02.549Z,4.17
2018-09-14T17:17:29.951Z,4.50
2018-09-14T17:19:57.404Z,5.23
2018-09-14T17:22:24.776Z,4.83
2018-09-14T17:24:52.142Z,4.87
2018-09-14T17:27:19.589Z,5.33
2018-09-14T17:29:47.063Z,5.43
2018-09-14T17:32:14.781Z,4.77
2018-09-14T17:34:42.399Z,5.37
2018-09-14T17:37:09.804Z,5.13
2018-09-14T17:39:37.268Z,5.63
2018-09-14T17:42:04.660Z,5.03
2018-09-14T17:44:32.236Z,4.90
2018-09-14T17:46:59.658Z,5.67
2018-09-14T17:49:27.091Z,6.50
2018-09-14T17:51:54.533Z,5.60
2018-09-14T17:54:21.956Z,5.30
2018-09-14T17:56:49.383Z,6.40
2018-09-14T17:59:16.821Z,5.23
2018-09-14T18:01:44.369Z,5.53
2018-09-14T18:04:11.820Z,5.67
2018-09-14T18:06:39.325Z,5.23
2018-09-14T18:09:08.947Z,5.23
2018-09-14T18:11:36.500Z,5.43
2018-09-14T18:14:03.945Z,5.47
2018-09-14T18:16:31.433Z,4.57
2018-09-14T18:18:58.800Z,5.77
2018-09-14T18:21:26.236Z,5.30
2018-09-14T18:23:53.758Z,7.03
2018-09-14T18:26:21.224Z,7.30
2018-09-14T18:28:48.655Z,5.93
2018-09-14T18:31:16.101Z,6.83
2018-09-14T18:33:44.589Z,6.30
2018-09-14T18:36:12.479Z,6.13
2018-09-14T18:38:39.907Z,5.47
2018-09-14T18:41:07.373Z,5.93
2018-09-14T18:43:34.840Z,5.77
2018-09-14T18:46:02.296Z,5.70
2018-09-14T18:48:29.720Z,5.40
2018-09-14T18:50:57.179Z,6.17
2018-09-14T18:53:24.597Z,6.27
2018-09-14T18:55:52.029Z,6.17
2018-09-14T18:58:19.556Z,6.00
2018-09-14T19:00:46.932Z,6.97
2018-09-14T19:03:14.367Z,6.33
2018-09-14T19:05:41.831Z,6.87
2018-09-14T19:08:09.288Z,6.93
2018-09-14T19:10:36.720Z,7.00
2018-09-14T19:13:04.176Z,6.00
2018-09-14T19:15:31.658Z,6.53
2018-09-14T19:17:59.133Z,6.70
2018-09-14T19:20:28.640Z,7.20
2018-09-14T19:22:55.864Z,6.73
2018-09-14T19:25:23.280Z,7.57
2018-09-14T19:27:50.693Z,6.13
2018-09-14T19:30:18.231Z,6.20
2018-09-14T19:32:45.596Z,7.50
2018-09-14T19:35:13.010Z,7.10
2018-09-14T19:37:40.373Z,6.20
2018-09-14T19:40:07.790Z,6.40
2018-09-14T19:42:35.175Z,6.30
2018-09-14T19:45:02.540Z,7.00
2018-09-14T19:47:29.966Z,6.60
2018-09-14T19:49:57.338Z,6.90
2018-09-14T19:52:24.804Z,6.90
2018-09-14T19:54:52.211Z,6.60
2018-09-14T19:57:19.701Z,6.07
2018-09-14T19:59:47.076Z,5.33
2018-09-14T20:02:14.436Z,6.60
2018-09-14T20:04:42.237Z,6.07
2018-09-14T20:07:09.652Z,5.50
2018-09-14T20:09:37.036Z,5.50
2018-09-14T20:12:04.444Z,5.50
2018-09-14T20:14:31.864Z,5.60
2018-09-14T20:17:00.319Z,6.37
2018-09-14T20:19:27.730Z,5.00
2018-09-14T20:21:56.716Z,4.93
2018-09-14T20:24:24.414Z,4.87
2018-09-14T20:26:51.868Z,5.20
2018-09-14T20:29:19.300Z,5.23
2018-09-14T20:31:47.555Z,5.17
2018-09-14T20:34:17.112Z,5.97
2018-09-14T20:36:44.564Z,5.40
2018-09-14T20:39:12.573Z,5.67
2018-09-14T20:41:40.739Z,6.90
2018-09-14T20:44:09.450Z,5.80
2018-09-14T20:46:36.918Z,5.70
2018-09-14T20:49:04.488Z,7.30
2018-09-14T20:51:32.995Z,5.70
2018-09-14T20:54:01.208Z,5.90
2018-09-14T20:56:29.540Z,6.10
2018-09-14T20:58:57.038Z,6.63
2018-09-14T21:01:24.507Z,5.97
2018-09-14T21:03:51.963Z,5.77
2018-09-14T21:06:32.576Z,6.10
2018-09-14T21:09:00.642Z,6.43
2018-09-14T21:11:29.780Z,6.50
2018-09-14T21:13:57.303Z,5.90
2018-09-14T21:16:24.744Z,6.60
2018-09-14T21:18:52.203Z,6.73
2018-09-14T21:21:20.953Z,6.17
2018-09-14T21:23:50.672Z,6.77
2018-09-14T21:26:19.883Z,6.60
2018-09-14T21:28:47.309Z,7.17
2018-09-14T21:31:14.733Z,6.67
2018-09-14T21:33:42.179Z,6.30
2018-09-14T21:36:10.287Z,7.33
2018-09-14T21:38:37.781Z,8.27
2018-09-14T21:41:05.844Z,7.30
2018-09-14T21:43:33.264Z,7.87
2018-09-14T21:46:01.844Z,8.67
2018-09-14T21:48:30.571Z,7.60
2018-09-14T21:50:58.657Z,9.00
2018-09-14T21:53:26.140Z,8.00
2018-09-14T21:55:53.584Z,9.77
2018-09-14T21:58:21.555Z,8.53
2018-09-14T22:00:56.764Z,8.30
2018-09-14T22:03:24.172Z,8.27
2018-09-14T22:05:51.616Z,7.57
2018-09-14T22:08:20.527Z,7.40
2018-09-14T22:10:49.288Z,7.90
2018-09-14T22:13:16.900Z,7.73
2018-09-14T22:15:44.348Z,7.80
2018-09-14T22:18:11.779Z,8.63
2018-09-14T22:20:40.248Z,7.60
2018-09-14T22:23:07.763Z,7.00
2018-09-14T22:25:36.020Z,7.10
2018-09-14T22:28:03.469Z,6.73
2018-09-14T22:30:30.876Z,7.27
2018-09-14T22:32:59.372Z,7.57
2018-09-14T22:35:26.850Z,7.03
2018-09-14T22:37:55.724Z,7.13
2018-09-14T22:40:23.115Z,7.10
2018-09-14T22:42:50.474Z,7.50
2018-09-14T22:45:17.836Z,7.00
2018-09-14T22:47:45.188Z,7.00
2018-09-14T22:50:12.597Z,7.23
2018-09-14T22:52:39.999Z,7.60
2018-09-14T22:55:08.088Z,7.57
2018-09-14T22:57:35.469Z,7.17
2018-09-14T23:00:02.872Z,8.90
2018-09-14T23:02:30.267Z,8.17
2018-09-14T23:04:58.109Z,7.90
2018-09-14T23:07:25.492Z,7.33
2018-09-14T23:09:52.871Z,8.37
2018-09-14T23:12:20.266Z,7.63
2018-09-14T23:14:47.679Z,7.30
2018-09-14T23:17:15.127Z,7.93
2018-09-14T23:19:42.593Z,7.77
2018-09-14T23:22:09.987Z,7.40
2018-09-14T23:24:37.425Z,8.07
2018-09-14T23:27:04.955Z,8.03
2018-09-14T23:29:32.368Z,7.80
2018-09-14T23:32:00.380Z,8.07
2018-09-14T23:34:28.615Z,8.50
2018-09-14T23:36:56.072Z,8.40
2018-09-14T23:39:23.500Z,7.50
2018-09-14T23:41:50.924Z,7.40
2018-09-14T23:44:18.407Z,7.70
2018-09-14T23:46:45.856Z,9.17
2018-09-14T23:49:37.106Z,9.60
2018-09-14T23:52:08.037Z,8.00
2018-09-14T23:54:47.847Z,8.60
2018-09-14T23:57:15.088Z,8.50
2018-09-14T23:59:44.448Z,8.93
